Time;durP1;ratioP1;P1;durP2;ratioP2;P2;SDS_P1;SDS_P2;PMS_P1;PMS_P2;Temp;Humidity;BMP_temperature;BMP_pressure;BME280_temperature;BME280_humidity;BME280_pressure;Samples;Min_cycle;Max_cycle;Signal;HPM_P1;HPM_P2
2021/03/01 00:01:27;;;;;;;48.07;21.03;;;3.70;99.90;;;;;;4157599;28;20278;-55
2021/03/01 00:03:30;;;;;;;45.07;21.23;;;3.70;99.90;;;;;;4157158;28;20285;-56
2021/03/01 00:05:32;;;;;;;32.53;16.20;;;3.70;99.90;;;;;;4157386;28;20275;-54
2021/03/01 00:07:33;;;;;;;31.83;15.20;;;3.70;99.90;;;;;;4157112;28;20297;-60
2021/03/01 00:09:35;;;;;;;26.73;13.50;;;3.70;99.90;;;;;;4156761;28;20274;-61
2021/03/01 00:11:36;;;;;;;27.50;13.67;;;3.70;99.90;;;;;;4157205;28;20843;-67
2021/03/01 00:13:37;;;;;;;27.90;14.80;;;3.70;99.90;;;;;;4156368;28;20279;-64
2021/03/01 00:15:39;;;;;;;26.90;14.57;;;3.70;99.90;;;;;;4157638;28;20360;-57
2021/03/01 00:17:40;;;;;;;24.23;11.77;;;3.70;99.90;;;;;;4156102;28;20309;-61
2021/03/01 00:19:41;;;;;;;23.97;10.87;;;3.80;99.90;;;;;;4157335;28;20677;-58
2021/03/01 00:21:42;;;;;;;22.57;11.67;;;3.80;99.90;;;;;;4156123;28;20262;-66
2021/03/01 00:23:44;;;;;;;30.13;12.47;;;3.80;99.90;;;;;;4158466;28;20267;-59
2021/03/01 00:25:45;;;;;;;26.50;12.80;;;3.70;99.90;;;;;;4156099;28;20725;-59
2021/03/01 00:27:46;;;;;;;19.10;10.87;;;3.70;99.90;;;;;;4157674;28;20270;-57
2021/03/01 00:29:47;;;;;;;19.17;10.50;;;3.70;99.90;;;;;;4155908;28;20766;-59
2021/03/01 00:31:48;;;;;;;20.63;10.97;;;3.70;99.90;;;;;;4157463;28;20746;-62
2021/03/01 00:33:49;;;;;;;25.50;12.97;;;3.70;99.90;;;;;;4156348;28;20262;-66
2021/03/01 00:35:51;;;;;;;18.60;10.37;;;3.70;99.90;;;;;;4157435;28;20291;-58
2021/03/01 00:37:52;;;;;;;25.87;12.17;;;3.80;99.90;;;;;;4157120;28;20393;-61
2021/03/01 00:39:53;;;;;;;25.90;11.57;;;3.80;99.90;;;;;;4156842;28;20336;-64
2021/03/01 00:41:54;;;;;;;25.63;11.20;;;3.80;99.90;;;;;;4157073;28;20883;-61
2021/03/01 00:43:55;;;;;;;18.87;10.83;;;3.80;99.90;;;;;;4156251;28;20286;-56
2021/03/01 00:45:57;;;;;;;19.07;10.10;;;3.90;99.90;;;;;;4157453;28;20262;-62
2021/03/01 00:47:58;;;;;;;24.77;11.17;;;3.90;99.90;;;;;;4156054;28;20275;-61
2021/03/01 00:49:59;;;;;;;27.70;11.70;;;3.90;99.90;;;;;;4157761;28;20971;-58
2021/03/01 00:52:01;;;;;;;26.63;10.47;;;3.90;99.90;;;;;;4156194;28;20270;-57
2021/03/01 00:54:02;;;;;;;26.33;11.93;;;4.00;99.90;;;;;;4158231;28;21166;-59
2021/03/01 00:56:03;;;;;;;27.80;13.07;;;4.00;99.90;;;;;;4155931;28;20295;-60
2021/03/01 00:58:05;;;;;;;24.97;13.50;;;4.00;99.90;;;;;;4157809;28;20275;-56
2021/03/01 01:00:13;;;;;;;24.13;12.20;;;4.00;99.90;;;;;;4156063;28;20287;-54
2021/03/01 01:02:15;;;;;;;26.80;12.17;;;4.10;99.90;;;;;;4157937;28;20674;-57
2021/03/01 01:04:16;;;;;;;21.47;11.40;;;4.10;99.90;;;;;;4156335;28;20329;-57
2021/03/01 01:06:17;;;;;;;18.13;9.67;;;4.10;99.90;;;;;;4157446;28;20321;-67
2021/03/01 01:08:19;;;;;;;22.47;11.00;;;4.10;99.90;;;;;;4172107;28;20336;-56
2021/03/01 01:10:20;;;;;;;24.57;12.97;;;4.20;99.90;;;;;;4172935;28;20618;-66
2021/03/01 01:12:21;;;;;;;19.80;10.20;;;4.30;99.90;;;;;;4173208;28;20270;-66
2021/03/01 01:14:22;;;;;;;18.87;11.10;;;4.40;99.90;;;;;;4172850;28;20266;-67
2021/03/01 01:16:23;;;;;;;15.47;8.40;;;4.50;99.90;;;;;;4173291;28;20359;-57
2021/03/01 01:18:25;;;;;;;18.43;8.90;;;4.50;99.90;;;;;;4171840;28;20319;-57
2021/03/01 01:20:27;;;;;;;18.87;10.07;;;4.60;99.90;;;;;;4173965;28;20266;-57
2021/03/01 01:22:28;;;;;;;16.07;8.67;;;4.60;99.90;;;;;;4167632;28;20279;-63
2021/03/01 01:24:29;;;;;;;27.50;11.50;;;4.70;99.90;;;;;;4157391;28;20320;-59
2021/03/01 01:26:30;;;;;;;18.63;9.07;;;4.70;99.90;;;;;;4156247;28;20328;-58
2021/03/01 01:28:32;;;;;;;21.07;11.97;;;4.70;99.90;;;;;;4157223;28;20813;-58
2021/03/01 01:30:33;;;;;;;23.57;12.00;;;4.80;99.90;;;;;;4155921;28;20313;-63
2021/03/01 01:32:36;;;;;;;20.20;10.97;;;4.80;99.90;;;;;;4156804;28;20782;-62
2021/03/01 01:34:37;;;;;;;17.37;8.77;;;4.80;99.90;;;;;;4155391;28;21033;-58
2021/03/01 01:36:38;;;;;;;15.23;7.43;;;4.90;99.90;;;;;;4157264;28;20262;-61
2021/03/01 01:38:39;;;;;;;14.43;7.83;;;4.90;99.90;;;;;;4156244;28;20324;-62
2021/03/01 01:40:41;;;;;;;16.70;7.60;;;5.00;99.90;;;;;;4157100;28;20731;-60
2021/03/01 01:42:42;;;;;;;15.27;7.43;;;5.00;99.90;;;;;;4159465;28;20349;-56
2021/03/01 01:44:44;;;;;;;18.30;8.90;;;5.00;99.90;;;;;;4158666;28;20291;-66
2021/03/01 01:46:45;;;;;;;17.37;8.30;;;5.00;99.90;;;;;;4159936;28;20340;-58
2021/03/01 01:48:46;;;;;;;16.47;8.07;;;5.00;99.90;;;;;;4158540;28;20325;-57
2021/03/01 01:50:47;;;;;;;17.70;7.53;;;5.00;99.90;;;;;;4160433;28;20345;-59
2021/03/01 01:52:50;;;;;;;20.23;8.83;;;5.00;99.90;;;;;;4158600;28;20604;-63
2021/03/01 01:54:51;;;;;;;20.40;8.07;;;5.00;99.90;;;;;;4160098;28;20329;-58
2021/03/01 01:56:53;;;;;;;15.63;8.13;;;4.90;99.90;;;;;;4158202;28;20282;-57
2021/03/01 01:58:54;;;;;;;15.07;8.00;;;4.90;99.90;;;;;;4159939;28;20345;-59
2021/03/01 02:00:56;;;;;;;19.50;9.00;;;4.90;99.90;;;;;;4158216;28;20615;-60
2021/03/01 02:03:06;;;;;;;23.63;8.27;;;4.90;99.90;;;;;;4159396;28;20282;-59
2021/03/01 02:05:09;;;;;;;18.27;8.57;;;4.90;99.90;;;;;;4158513;28;20267;-62
2021/03/01 02:07:19;;;;;;;16.97;8.13;;;4.90;99.90;;;;;;4159633;28;20103;-65
2021/03/01 02:09:38;;;;;;;18.33;8.68;;;4.90;99.90;;;;;;4156385;28;20283;-62
2021/03/01 02:12:10;;;;;;;18.50;8.20;;;4.90;99.90;;;;;;4159812;28;20037;-61
2021/03/01 02:14:11;;;;;;;20.47;7.47;;;4.80;99.90;;;;;;4142293;28;20345;-57
2021/03/01 02:16:20;;;;;;;13.43;7.63;;;4.80;99.90;;;;;;4148445;28;20294;-67
2021/03/01 02:18:21;;;;;;;14.80;7.67;;;4.80;99.90;;;;;;4158898;28;20285;-62
2021/03/01 02:20:22;;;;;;;15.10;7.87;;;4.80;99.90;;;;;;4159647;28;20348;-66
2021/03/01 02:22:23;;;;;;;13.83;8.00;;;4.90;99.90;;;;;;4157985;28;20283;-65
2021/03/01 02:25:02;;;;;;;15.97;8.33;;;4.90;99.90;;;;;;4160013;28;20278;-61
2021/03/01 02:27:05;;;;;;;16.13;7.87;;;4.90;99.90;;;;;;4138765;28;20623;-61
2021/03/01 02:29:10;;;;;;;16.60;7.80;;;4.90;99.90;;;;;;4151090;28;20283;-58
2021/03/01 02:31:13;;;;;;;14.67;8.23;;;4.90;99.90;;;;;;4158022;28;20620;-66
2021/03/01 02:33:20;;;;;;;18.10;9.77;;;4.90;99.90;;;;;;4159690;28;20333;-55
2021/03/01 02:35:22;;;;;;;15.10;7.47;;;4.90;99.90;;;;;;4157130;28;20341;-55
2021/03/01 02:37:26;;;;;;;16.03;8.33;;;4.90;99.90;;;;;;4159493;28;20313;-59
2021/03/01 02:39:29;;;;;;;17.80;9.50;;;4.90;99.90;;;;;;4157864;28;20271;-58
2021/03/01 02:41:33;;;;;;;16.90;8.47;;;4.90;99.90;;;;;;4159430;28;20271;-57
2021/03/01 02:43:36;;;;;;;18.40;8.87;;;4.80;99.90;;;;;;4157358;28;20286;-58
2021/03/01 02:45:38;;;;;;;20.43;10.03;;;4.80;99.90;;;;;;4157106;28;20274;-62
2021/03/01 02:47:40;;;;;;;16.23;8.67;;;4.80;99.90;;;;;;4156712;28;20316;-57
2021/03/01 02:49:43;;;;;;;19.03;8.27;;;4.80;99.90;;;;;;4155306;28;20279;-57
2021/03/01 02:51:48;;;;;;;17.77;8.57;;;4.70;99.90;;;;;;4156333;28;20278;-60
2021/03/01 02:53:50;;;;;;;22.83;9.43;;;4.60;99.90;;;;;;4156834;28;20792;-57
2021/03/01 02:55:52;;;;;;;16.40;8.50;;;4.60;99.90;;;;;;4159517;28;20286;-65
2021/03/01 02:57:56;;;;;;;15.30;8.20;;;4.50;99.90;;;;;;4159532;28;20275;-56
2021/03/01 02:59:58;;;;;;;17.70;9.37;;;4.40;99.90;;;;;;4157598;28;20271;-55
2021/03/01 03:02:00;;;;;;;19.40;9.00;;;4.40;99.90;;;;;;4156760;28;20340;-66
2021/03/01 03:04:03;;;;;;;17.90;9.03;;;4.30;99.90;;;;;;4157186;28;20666;-58
2021/03/01 03:06:09;;;;;;;17.27;9.33;;;4.30;99.90;;;;;;4157239;28;20259;-63
2021/03/01 03:08:11;;;;;;;20.60;9.33;;;4.30;99.90;;;;;;4156988;28;21134;-54
2021/03/01 03:10:15;;;;;;;22.33;9.63;;;4.20;99.90;;;;;;4156659;28;20285;-57
2021/03/01 03:12:18;;;;;;;21.53;10.03;;;4.10;99.90;;;;;;4156963;28;21231;-63
2021/03/01 03:14:23;;;;;;;21.07;9.30;;;4.10;99.90;;;;;;4156555;28;20305;-52
2021/03/01 03:16:25;;;;;;;19.03;10.27;;;4.00;99.90;;;;;;4156881;28;20364;-60
2021/03/01 03:18:28;;;;;;;19.50;10.17;;;4.00;99.90;;;;;;4156501;28;20325;-60
2021/03/01 03:20:29;;;;;;;20.27;9.87;;;3.90;99.90;;;;;;4156690;28;20243;-58
2021/03/01 03:22:30;;;;;;;18.27;9.87;;;3.80;99.90;;;;;;4155391;28;20274;-57
2021/03/01 03:24:32;;;;;;;19.93;10.60;;;3.80;99.90;;;;;;4156585;28;20824;-53
2021/03/01 03:26:33;;;;;;;22.13;10.83;;;3.70;99.90;;;;;;4156825;28;20313;-55
2021/03/01 03:28:35;;;;;;;20.50;10.17;;;3.70;99.90;;;;;;4156724;28;20274;-57
2021/03/01 03:30:36;;;;;;;20.47;11.00;;;3.70;99.90;;;;;;4156227;28;20753;-56
2021/03/01 03:32:38;;;;;;;19.00;10.30;;;3.60;99.90;;;;;;4156558;28;20313;-63
2021/03/01 03:34:39;;;;;;;22.43;10.17;;;3.50;99.90;;;;;;4156044;28;20289;-58
2021/03/01 03:36:45;;;;;;;20.70;11.43;;;3.50;99.90;;;;;;4155805;28;20333;-56
2021/03/01 03:38:55;;;;;;;21.33;10.60;;;3.40;99.90;;;;;;4155835;28;20324;-60
2021/03/01 03:41:02;;;;;;;20.67;11.15;;;3.40;99.90;;;;;;4155853;28;20279;-58
2021/03/01 03:43:04;;;;;;;22.77;10.47;;;3.30;99.90;;;;;;4156683;28;20079;-63
2021/03/01 03:45:07;;;;;;;24.03;11.73;;;3.30;99.90;;;;;;4156292;28;21125;-59
2021/03/01 03:47:09;;;;;;;22.83;11.47;;;3.20;99.90;;;;;;4156121;28;20313;-54
2021/03/01 03:49:14;;;;;;;23.20;11.47;;;3.20;99.90;;;;;;4156357;28;20267;-59
2021/03/01 03:51:16;;;;;;;24.30;11.20;;;3.20;99.90;;;;;;4155850;28;20420;-59
2021/03/01 03:53:17;;;;;;;23.37;11.77;;;3.20;99.90;;;;;;4156335;28;20317;-58
2021/03/01 03:55:21;;;;;;;27.97;11.13;;;3.20;99.90;;;;;;4156465;28;20743;-55
2021/03/01 03:57:25;;;;;;;20.67;10.63;;;3.20;99.90;;;;;;4156078;28;20305;-59
2021/03/01 03:59:31;;;;;;;19.50;10.43;;;3.10;99.90;;;;;;4154489;28;20313;-60
2021/03/01 04:01:34;;;;;;;24.77;11.43;;;3.10;99.90;;;;;;4155378;28;20308;-56
2021/03/01 04:03:36;;;;;;;23.30;11.83;;;3.10;99.90;;;;;;4155639;28;20321;-55
2021/03/01 04:05:43;;;;;;;20.50;11.47;;;3.00;99.90;;;;;;4155986;28;20313;-56
2021/03/01 04:07:45;;;;;;;21.53;11.57;;;3.00;99.90;;;;;;4155864;28;20389;-52
2021/03/01 04:09:47;;;;;;;23.70;12.10;;;3.00;99.90;;;;;;4155741;28;20677;-59
2021/03/01 04:11:51;;;;;;;24.93;12.53;;;2.90;99.90;;;;;;4156223;28;20340;-57
2021/03/01 04:13:55;;;;;;;23.63;11.60;;;2.90;99.90;;;;;;4155537;28;20267;-61
2021/03/01 04:15:56;;;;;;;26.27;12.83;;;2.90;99.90;;;;;;4155920;28;21159;-56
2021/03/01 04:17:59;;;;;;;29.73;13.83;;;2.90;99.90;;;;;;4156075;28;20271;-66
2021/03/01 04:20:05;;;;;;;30.30;13.40;;;2.90;99.90;;;;;;4155983;28;20298;-58
2021/03/01 04:22:07;;;;;;;25.43;12.97;;;2.90;99.90;;;;;;4155323;28;20724;-56
2021/03/01 04:24:10;;;;;;;29.70;13.47;;;2.90;99.90;;;;;;4155882;28;20282;-59
2021/03/01 04:26:12;;;;;;;25.20;11.90;;;2.90;99.90;;;;;;4154297;28;20844;-57
2021/03/01 04:28:14;;;;;;;21.73;11.10;;;2.80;99.90;;;;;;4138237;28;20357;-63
2021/03/01 04:30:16;;;;;;;24.13;11.53;;;2.80;99.90;;;;;;4145574;28;20336;-64
2021/03/01 04:32:19;;;;;;;23.17;11.70;;;2.80;99.90;;;;;;4172121;28;20324;-55
2021/03/01 04:34:21;;;;;;;26.83;13.27;;;2.80;99.90;;;;;;4172251;28;20344;-57
2021/03/01 04:36:24;;;;;;;26.57;13.57;;;2.80;99.90;;;;;;4171980;28;20297;-57
2021/03/01 04:38:26;;;;;;;28.53;13.07;;;2.80;99.90;;;;;;4172179;28;20260;-62
2021/03/01 04:40:27;;;;;;;21.87;11.73;;;2.80;99.90;;;;;;4168482;28;20340;-59
2021/03/01 04:42:31;;;;;;;25.40;12.27;;;2.70;99.90;;;;;;4155470;28;20321;-60
2021/03/01 04:44:33;;;;;;;26.53;12.87;;;2.70;99.90;;;;;;4155544;28;20670;-55
2021/03/01 04:46:35;;;;;;;26.37;13.47;;;2.70;99.90;;;;;;4155389;28;20686;-56
2021/03/01 04:48:37;;;;;;;24.93;12.27;;;2.80;99.90;;;;;;4154993;28;20274;-61
2021/03/01 04:50:39;;;;;;;25.90;12.13;;;2.70;99.90;;;;;;4155269;28;20325;-60
2021/03/01 04:52:43;;;;;;;23.93;12.67;;;2.70;99.90;;;;;;4155150;28;20279;-60
2021/03/01 04:54:45;;;;;;;23.97;12.20;;;2.70;99.90;;;;;;4155666;28;20811;-62
2021/03/01 04:56:48;;;;;;;26.20;12.50;;;2.70;99.90;;;;;;4155152;28;20302;-61
2021/03/01 04:58:51;;;;;;;24.90;12.40;;;2.70;99.90;;;;;;4155242;28;20274;-63
2021/03/01 05:00:54;;;;;;;28.30;12.73;;;2.70;99.90;;;;;;4154771;28;20283;-59
2021/03/01 05:02:56;;;;;;;22.27;10.93;;;2.70;99.90;;;;;;4155111;28;20297;-56
2021/03/01 05:04:59;;;;;;;24.87;12.73;;;2.70;99.90;;;;;;4154990;28;20724;-62
2021/03/01 05:07:00;;;;;;;23.37;11.87;;;2.70;99.90;;;;;;4155038;28;20735;-59
2021/03/01 05:09:02;;;;;;;23.93;12.13;;;2.70;99.90;;;;;;4154890;28;20279;-62
2021/03/01 05:11:05;;;;;;;24.80;12.50;;;2.70;99.90;;;;;;4155300;28;20742;-60
2021/03/01 05:13:07;;;;;;;23.63;11.97;;;2.80;99.90;;;;;;4154712;28;20270;-61
2021/03/01 05:15:09;;;;;;;26.00;13.47;;;2.80;99.90;;;;;;4154539;28;20275;-58
2021/03/01 05:17:10;;;;;;;22.17;12.53;;;2.80;99.90;;;;;;4141516;28;20374;-61
2021/03/01 05:19:11;;;;;;;31.83;12.47;;;2.80;99.90;;;;;;4146205;28;20320;-59
2021/03/01 05:21:13;;;;;;;28.57;12.33;;;2.80;99.90;;;;;;4157935;28;20329;-64
2021/03/01 05:23:14;;;;;;;23.37;12.40;;;2.80;99.90;;;;;;4158356;28;20262;-59
2021/03/01 05:25:15;;;;;;;24.23;13.20;;;2.80;99.90;;;;;;4158802;28;20279;-66
2021/03/01 05:27:17;;;;;;;25.43;13.03;;;2.70;99.90;;;;;;4158035;28;20313;-61
2021/03/01 05:29:18;;;;;;;31.63;14.13;;;2.80;99.90;;;;;;4157740;28;20911;-59
2021/03/01 05:31:19;;;;;;;28.17;12.83;;;2.70;99.90;;;;;;4158351;28;20305;-60
2021/03/01 05:33:20;;;;;;;25.23;12.23;;;2.80;99.90;;;;;;4158200;28;20267;-64
2021/03/01 05:35:21;;;;;;;31.43;12.50;;;2.80;99.90;;;;;;4156736;28;20332;-63
2021/03/01 05:37:23;;;;;;;24.10;12.63;;;2.70;99.90;;;;;;4157922;28;20348;-59
2021/03/01 05:39:24;;;;;;;28.13;12.80;;;2.70;99.90;;;;;;4157215;28;20287;-60
2021/03/01 05:41:26;;;;;;;22.00;12.40;;;2.70;99.90;;;;;;4157664;28;20272;-59
2021/03/01 05:43:29;;;;;;;28.27;14.13;;;2.70;99.90;;;;;;4157648;28;20275;-57
2021/03/01 05:45:30;;;;;;;26.27;13.90;;;2.70;99.90;;;;;;4157618;28;20271;-66
2021/03/01 05:47:33;;;;;;;25.23;12.97;;;2.70;99.90;;;;;;4157543;28;20325;-63
2021/03/01 05:49:37;;;;;;;28.83;14.87;;;2.70;99.90;;;;;;4155621;28;20344;-65
2021/03/01 05:51:42;;;;;;;33.43;15.13;;;2.70;99.90;;;;;;4157466;28;20305;-62
2021/03/01 05:53:44;;;;;;;31.63;14.37;;;2.70;99.90;;;;;;4157018;28;20270;-60
2021/03/01 05:55:47;;;;;;;25.97;12.93;;;2.70;99.90;;;;;;4157926;28;20334;-61
2021/03/01 05:57:48;;;;;;;28.77;13.67;;;2.80;99.90;;;;;;4157544;28;21005;-60
2021/03/01 05:59:50;;;;;;;25.50;13.80;;;2.80;99.90;;;;;;4157360;28;20401;-59
2021/03/01 06:01:52;;;;;;;26.73;13.70;;;2.80;99.90;;;;;;4156659;28;20735;-60
2021/03/01 06:03:54;;;;;;;29.37;14.63;;;2.80;99.90;;;;;;4157918;28;20348;-60
2021/03/01 06:05:55;;;;;;;28.87;14.50;;;2.80;99.90;;;;;;4157236;28;20275;-61
2021/03/01 06:07:57;;;;;;;30.77;14.13;;;2.80;99.90;;;;;;4157572;28;20281;-58
2021/03/01 06:09:59;;;;;;;29.47;14.03;;;2.90;99.90;;;;;;4156078;28;20282;-61
2021/03/01 06:12:00;;;;;;;27.33;15.20;;;2.90;99.90;;;;;;4157134;28;20271;-58
2021/03/01 06:14:05;;;;;;;26.30;14.10;;;2.90;99.90;;;;;;4157064;28;20259;-58
2021/03/01 06:16:08;;;;;;;42.73;19.63;;;3.00;99.90;;;;;;4156777;28;20336;-57
2021/03/01 06:18:11;;;;;;;30.27;14.97;;;3.00;99.90;;;;;;4157447;28;20325;-59
2021/03/01 06:20:12;;;;;;;31.40;16.47;;;3.00;99.90;;;;;;4156901;28;20369;-60
2021/03/01 06:22:14;;;;;;;30.30;15.67;;;3.10;99.90;;;;;;4156756;28;20352;-59
2021/03/01 06:24:16;;;;;;;31.63;14.60;;;3.10;99.90;;;;;;4156958;28;20263;-60
2021/03/01 06:26:33;;;;;;;33.77;16.10;;;3.10;99.90;;;;;;4157092;28;20274;-59
2021/03/01 06:28:34;;;;;;;30.27;15.10;;;3.10;99.90;;;;;;4156267;28;20271;-59
2021/03/01 06:30:37;;;;;;;32.63;15.73;;;3.20;99.90;;;;;;4156894;28;20313;-58
2021/03/01 06:32:39;;;;;;;28.80;14.90;;;3.20;99.90;;;;;;4156558;28;20270;-58
2021/03/01 06:34:40;;;;;;;33.40;14.57;;;3.30;99.90;;;;;;4156741;28;20960;-64
2021/03/01 06:37:10;;;;;;;28.77;14.80;;;3.30;99.90;;;;;;4156610;28;20790;-58
2021/03/01 06:39:50;;;;;;;28.00;14.97;;;3.40;99.90;;;;;;4156941;28;20271;-59
2021/03/01 06:41:51;;;;;;;24.70;13.83;;;3.40;99.90;;;;;;4153952;28;20336;-59
2021/03/01 06:43:55;;;;;;;30.77;13.67;;;3.70;99.90;;;;;;4156580;28;20666;-59
2021/03/01 06:46:13;;;;;;;29.50;14.57;;;3.90;99.90;;;;;;4156671;28;20317;-60
2021/03/01 06:48:14;;;;;;;23.43;13.33;;;4.20;99.90;;;;;;4154542;28;20812;-60
2021/03/01 06:50:35;;;;;;;23.27;12.83;;;4.50;99.90;;;;;;4156125;28;20317;-60
2021/03/01 06:52:37;;;;;;;29.50;13.57;;;4.90;99.90;;;;;;4156412;28;20255;-59
2021/03/01 06:54:39;;;;;;;23.80;12.70;;;4.90;99.90;;;;;;4156465;28;20896;-58
2021/03/01 06:56:42;;;;;;;26.97;14.13;;;4.90;99.90;;;;;;4156761;28;20333;-56
2021/03/01 06:58:45;;;;;;;27.77;13.93;;;4.90;99.90;;;;;;4156080;28;20270;-58
2021/03/01 07:00:56;;;;;;;24.60;13.00;;;4.90;99.90;;;;;;4154671;28;20329;-58
2021/03/01 07:02:58;;;;;;;23.67;12.77;;;4.80;99.90;;;;;;4156266;28;20267;-59
2021/03/01 07:04:59;;;;;;;25.43;12.20;;;4.70;99.90;;;;;;4156185;28;20287;-60
2021/03/01 07:07:02;;;;;;;23.57;12.40;;;4.50;99.90;;;;;;4156419;28;20279;-59
2021/03/01 07:09:03;;;;;;;27.03;12.73;;;4.50;99.90;;;;;;4158473;28;20262;-58
2021/03/01 07:11:25;;;;;;;24.87;12.70;;;4.50;99.90;;;;;;4154844;28;20275;-60
2021/03/01 07:13:28;;;;;;;27.13;12.97;;;4.60;99.90;;;;;;4145000;28;20698;-59
2021/03/01 07:15:29;;;;;;;25.90;13.97;;;4.70;99.90;;;;;;4155970;28;20309;-58
2021/03/01 07:17:31;;;;;;;26.27;13.30;;;4.70;99.90;;;;;;4155119;28;20321;-61
2021/03/01 07:19:34;;;;;;;28.80;13.33;;;4.70;99.90;;;;;;4155356;28;20370;-59
2021/03/01 07:21:38;;;;;;;24.70;13.37;;;4.70;99.90;;;;;;4155158;28;20792;-60
2021/03/01 07:23:46;;;;;;;24.57;13.20;;;4.70;99.90;;;;;;4155810;28;20354;-59
2021/03/01 07:25:49;;;;;;;22.73;12.97;;;4.70;99.90;;;;;;4156117;28;20730;-59
2021/03/01 07:27:52;;;;;;;26.00;13.93;;;4.70;99.90;;;;;;4155737;28;20353;-57
2021/03/01 07:29:58;;;;;;;26.23;13.10;;;4.80;99.90;;;;;;4155747;28;20267;-59
2021/03/01 07:32:04;;;;;;;25.13;13.40;;;5.10;99.90;;;;;;4156223;28;20266;-60
2021/03/01 07:34:07;;;;;;;23.33;12.40;;;5.50;99.90;;;;;;4156003;28;20305;-60
2021/03/01 07:36:10;;;;;;;23.03;12.33;;;6.00;99.90;;;;;;4155179;28;20337;-60
2021/03/01 07:38:11;;;;;;;27.37;13.97;;;6.10;99.90;;;;;;4153779;28;20824;-59
2021/03/01 07:40:13;;;;;;;29.37;13.97;;;6.20;99.90;;;;;;4155778;28;20328;-60
2021/03/01 07:42:16;;;;;;;24.13;13.43;;;6.70;99.90;;;;;;4155645;28;20262;-60
2021/03/01 07:44:27;;;;;;;22.87;12.37;;;6.90;99.90;;;;;;4155732;28;20624;-62
2021/03/01 07:46:29;;;;;;;;;;;6.70;99.90;;;;;;4155756;28;20709;-60
2021/03/01 07:48:39;;;;;;;22.43;12.23;;;6.30;99.90;;;;;;4155265;28;19905;-60
2021/03/01 07:50:43;;;;;;;22.70;12.73;;;6.10;99.90;;;;;;4154858;28;20274;-60
2021/03/01 07:52:45;;;;;;;22.57;12.03;;;5.80;99.90;;;;;;4155877;28;20259;-61
2021/03/01 07:54:51;;;;;;;25.57;12.77;;;5.70;99.90;;;;;;4155282;28;20270;-60
2021/03/01 07:56:52;;;;;;;22.20;11.20;;;5.60;99.90;;;;;;4155940;28;20762;-61
2021/03/01 07:59:05;;;;;;;27.07;13.50;;;5.60;99.90;;;;;;4154339;28;20278;-60
2021/03/01 08:01:13;;;;;;;21.00;11.30;;;5.60;99.90;;;;;;4155720;28;20412;-57
2021/03/01 08:03:35;;;;;;;26.60;14.03;;;5.60;99.90;;;;;;4154199;28;20440;-58
2021/03/01 08:05:36;;;;;;;23.07;12.13;;;5.40;99.90;;;;;;4154639;28;20267;-60
2021/03/01 08:07:43;;;;;;;22.47;12.70;;;5.20;99.90;;;;;;4154623;28;20353;-64
2021/03/01 08:09:54;;;;;;;23.50;12.60;;;5.30;99.90;;;;;;4154887;28;20313;-59
2021/03/01 08:11:55;;;;;;;;;;;5.40;99.90;;;;;;4154159;28;20274;-65
2021/03/01 08:13:55;;;;;;;;;;;5.60;99.90;;;;;;4155737;28;19971;-59
2021/03/01 08:16:16;;;;;;;;;;;5.70;99.90;;;;;;4155652;28;20381;-60
2021/03/01 08:18:17;;;;;;;19.25;10.25;;;6.00;99.90;;;;;;4155662;28;19917;-59
2021/03/01 08:20:24;;;;;;;22.60;12.13;;;6.10;99.90;;;;;;4154835;28;20441;-59
2021/03/01 08:22:26;;;;;;;23.60;11.23;;;6.20;99.90;;;;;;4153513;28;20367;-59
2021/03/01 08:24:46;;;;;;;20.93;11.40;;;6.20;99.90;;;;;;4155207;28;20379;-59
2021/03/01 08:26:47;;;;;;;19.33;11.73;;;6.20;99.90;;;;;;4155638;28;20259;-60
2021/03/01 08:28:49;;;;;;;21.00;11.33;;;6.30;99.90;;;;;;4155115;28;20313;-59
2021/03/01 08:30:54;;;;;;;19.70;10.97;;;6.20;99.90;;;;;;4155506;28;20320;-59
2021/03/01 08:33:26;;;;;;;18.03;10.70;;;6.20;99.90;;;;;;4155616;28;20321;-61
2021/03/01 08:35:27;;;;;;;19.67;11.17;;;6.20;99.90;;;;;;4154858;28;20322;-58
2021/03/01 08:37:45;;;;;;;18.37;10.10;;;6.20;99.90;;;;;;4154661;28;20298;-59
2021/03/01 08:39:59;;;;;;;21.57;11.73;;;6.20;99.90;;;;;;4155283;28;20374;-59
2021/03/01 08:42:01;;;;;;;16.87;10.23;;;6.20;99.90;;;;;;4154864;28;20765;-59
2021/03/01 08:44:16;;;;;;;23.90;10.63;;;6.10;99.90;;;;;;4154200;28;21106;-59
2021/03/01 08:46:19;;;;;;;21.60;11.13;;;6.10;99.90;;;;;;4154621;28;20344;-59
2021/03/01 08:48:21;;;;;;;21.03;10.87;;;6.10;99.90;;;;;;4152439;28;20086;-58
2021/03/01 08:50:36;;;;;;;25.03;13.30;;;6.10;99.90;;;;;;4154270;28;20049;-59
2021/03/01 08:52:38;;;;;;;31.07;16.00;;;6.10;99.90;;;;;;4157081;28;20286;-58
2021/03/01 08:54:40;;;;;;;23.57;11.80;;;6.10;99.90;;;;;;4157089;28;20853;-56
2021/03/01 08:56:41;;;;;;;53.13;23.60;;;6.30;99.90;;;;;;4157833;28;20340;-59
2021/03/01 08:58:42;;;;;;;65.30;26.53;;;6.70;99.90;;;;;;4156890;28;20274;-64
2021/03/01 09:00:55;;;;;;;60.43;26.60;;;7.00;99.90;;;;;;4155612;28;20270;-61
2021/03/01 09:03:18;;;;;;;31.80;14.47;;;7.60;99.90;;;;;;4157054;28;20033;-59
2021/03/01 09:05:19;;;;;;;48.33;22.73;;;8.00;99.90;;;;;;4154643;28;20575;-59
2021/03/01 09:07:20;;;;;;;22.83;10.73;;;8.40;99.90;;;;;;4156717;28;20444;-59
2021/03/01 09:09:22;;;;;;;25.07;12.70;;;8.50;99.90;;;;;;4157147;28;20135;-61
2021/03/01 09:11:29;;;;;;;24.17;12.90;;;8.60;99.90;;;;;;4156634;28;20080;-60
2021/03/01 09:13:33;;;;;;;26.27;13.37;;;8.70;99.90;;;;;;4156746;28;20167;-60
2021/03/01 09:15:36;;;;;;;24.93;13.00;;;8.90;99.90;;;;;;4156971;28;20145;-60
2021/03/01 09:17:37;;;;;;;17.93;10.83;;;8.80;99.90;;;;;;4156948;28;20087;-62
2021/03/01 09:19:38;;;;;;;15.07;9.00;;;8.80;99.90;;;;;;4157154;28;20519;-66
2021/03/01 09:21:43;;;;;;;20.93;8.47;;;9.10;99.90;;;;;;4156527;28;20481;-60
2021/03/01 09:23:52;;;;;;;14.87;8.50;;;9.10;99.90;;;;;;4156964;28;20510;-59
2021/03/01 09:25:53;;;;;;;17.30;7.97;;;9.30;99.90;;;;;;4157144;28;20057;-59
2021/03/01 09:27:55;;;;;;;19.63;9.30;;;9.60;99.90;;;;;;4157003;28;20033;-60
2021/03/01 09:30:06;;;;;;;24.90;12.33;;;9.70;99.90;;;;;;4156479;28;21093;-63
2021/03/01 09:32:07;;;;;;;19.97;9.63;;;9.70;99.90;;;;;;4156532;28;20041;-59
2021/03/01 09:34:10;;;;;;;15.37;7.07;;;9.70;99.90;;;;;;4156944;28;20083;-63
2021/03/01 09:36:12;;;;;;;16.67;8.27;;;9.70;99.90;;;;;;4156685;28;20033;-61
2021/03/01 09:38:13;;;;;;;17.03;6.87;;;9.90;99.90;;;;;;4156235;28;20856;-60
2021/03/01 09:40:22;;;;;;;14.53;8.70;;;10.00;99.90;;;;;;4155610;28;20090;-60
2021/03/01 09:42:23;;;;;;;27.77;14.00;;;10.00;99.90;;;;;;4156184;28;20483;-59
2021/03/01 09:44:27;;;;;;;18.27;10.00;;;9.90;99.90;;;;;;4131080;28;738070;-59
2021/03/01 09:46:28;;;;;;;17.37;8.43;;;9.80;99.90;;;;;;4157090;28;20049;-62
2021/03/01 09:48:35;;;;;;;15.37;8.30;;;9.80;99.90;;;;;;4157587;28;20030;-59
2021/03/01 09:50:39;;;;;;;15.20;7.43;;;9.80;99.90;;;;;;4157143;28;20045;-59
2021/03/01 09:52:41;;;;;;;25.43;7.20;;;9.90;99.90;;;;;;4156919;28;20454;-59
2021/03/01 09:54:42;;;;;;;17.13;6.90;;;9.70;99.70;;;;;;4157492;28;20068;-60
2021/03/01 09:56:48;;;;;;;14.23;5.50;;;9.20;99.20;;;;;;4157276;28;20049;-62
2021/03/01 09:58:49;;;;;;;10.80;5.33;;;8.70;98.70;;;;;;4157613;28;20068;-60
2021/03/01 10:00:51;;;;;;;9.53;5.53;;;8.30;99.50;;;;;;4156478;28;20096;-64
2021/03/01 10:03:01;;;;;;;19.23;7.07;;;8.20;99.90;;;;;;4156200;28;20102;-59
2021/03/01 10:05:10;;;;;;;17.17;6.83;;;8.30;99.90;;;;;;4156411;28;20536;-59
2021/03/01 10:07:16;;;;;;;16.07;7.57;;;8.50;99.90;;;;;;4157031;28;20384;-63
2021/03/01 10:09:17;;;;;;;18.23;7.47;;;8.70;99.90;;;;;;4156760;28;20653;-67
2021/03/01 10:11:25;;;;;;;13.87;5.60;;;8.80;99.90;;;;;;4156590;28;20042;-65
2021/03/01 10:13:44;;;;;;;24.17;5.70;;;8.80;99.40;;;;;;4156812;28;20029;-60
2021/03/01 10:15:46;;;;;;;20.03;7.10;;;8.50;98.80;;;;;;4157386;28;20103;-61
2021/03/01 10:18:03;;;;;;;14.63;6.53;;;8.30;99.70;;;;;;4156404;28;20053;-59
2021/03/01 10:20:04;;;;;;;23.53;5.63;;;8.00;99.90;;;;;;4156040;28;20045;-59
2021/03/01 10:22:06;;;;;;;11.83;5.43;;;7.90;99.90;;;;;;4156315;28;20037;-60
2021/03/01 10:24:11;;;;;;;8.47;4.30;;;7.90;99.50;;;;;;4156961;28;20033;-58
2021/03/01 10:26:21;;;;;;;10.57;4.17;;;7.80;99.20;;;;;;4156626;28;20091;-60
2021/03/01 10:28:25;;;;;;;12.43;4.50;;;7.80;98.90;;;;;;4157138;28;20474;-60
2021/03/01 10:30:26;;;;;;;9.20;5.40;;;7.80;99.20;;;;;;4156275;28;20041;-60
2021/03/01 10:32:27;;;;;;;11.27;4.97;;;7.90;99.40;;;;;;4157054;28;20041;-60
2021/03/01 10:34:37;;;;;;;21.73;5.53;;;8.20;99.30;;;;;;4157012;28;20083;-59
2021/03/01 10:36:58;;;;;;;14.40;5.60;;;8.50;98.70;;;;;;4155020;28;20419;-60
2021/03/01 10:39:15;;;;;;;19.43;5.07;;;8.60;97.10;;;;;;4156542;28;20096;-61
2021/03/01 10:41:21;;;;;;;6.73;3.70;;;8.50;96.40;;;;;;4156752;28;20051;-60